KEEN

Dillant-Hopkins Airport

Keene, New Hampshire, USA
METAR KEEN 181556Z AUTO 32013G21KT 10SM CLR 04/M09 A3023 RMK AO2 SLP260 T00391094 $
Observed Flight Rules
Oct-18 @ 15:56 UTC (40 minutes ago) Visual Flight Rules
Wind Visibility Clouds
320° at 13 knots
 Gusting to 21 knots
10 miles
  • Clear skies
Temperatures Readings
Current 4°C / 39°F
Dewpoint -9°C / 16°F
Humidity 39%
Altimeter 30.23" Hg
Pressure 1026 hPa
Elevation 149
METAR KEEN 181556Z AUTO 32013G21KT 10SM CLR 04/M09 A3023 RMK AO2 SLP260 T00391094 $
Observed Flight Rules
Oct-18 @ 15:56 UTC
(40 minutes ago)
VFR
Wind Visibility
320° at 13 knots
 Gusting to 21 knots
10 miles
Clouds
  • Clear skies
Temperature Dewpoint
4°C / 39°F -9°C / 16°F
Humidity Altimeter Pressure
39% 30.23" Hg 1026 hPa